Terminal Aerodrome Forecast
Issued by NWS

Home | Current Version | Previous Version | Text Only | Print | Product List | Glossary Off
Versions: 1 2 3 4 5 6 7 8 9 10 11 12 13 14 15 16

000
FTUS43 KBIS 260200 AAA
TAFJMS
TAF AMD
KJMS 260240Z 2603/2624 05015KT 1/2SM SN OVC006
     FM260500 02015G23KT 2SM -SN BLSN OVC012
     FM260900 36015G23KT P6SM BKN025
     FM261400 34012KT P6SM SCT060
     FM262300 34008KT P6SM SCT250=

USA.gov is the U.S. government's official web portal to all federal, state and local government web resources and services.